Time,TemperatureF,DewpointF,PressureIn,WindDirection,WindDirectionDegrees,WindSpeedMPH,WindSpeedGustMPH,Humidity,HourlyPrecipIn,Conditions,Clouds,dailyrainin,SoftwareType,DateUTC
2013-02-14 00:02:00,23.5,8.1,30.23,East,86,0.0,3.0,51,0.00,,,0.00,meteohub,2013-02-14 07:02:00,
2013-02-14 00:07:00,23.7,7.9,30.22,SSE,167,3.0,3.0,50,0.00,,,0.00,meteohub,2013-02-14 07:07:00,
2013-02-14 00:12:00,23.0,8.1,30.23,SW,218,2.0,4.0,52,0.00,,,0.00,meteohub,2013-02-14 07:12:00,
2013-02-14 00:17:00,22.5,8.2,30.23,SW,216,4.0,4.0,54,0.00,,,0.00,meteohub,2013-02-14 07:17:00,
2013-02-14 00:22:00,22.5,8.2,30.22,SSW,204,3.0,6.0,54,0.00,,,0.00,meteohub,2013-02-14 07:22:00,
2013-02-14 00:27:00,22.3,8.2,30.22,SSW,195,2.0,6.0,54,0.00,,,0.00,meteohub,2013-02-14 07:27:00,
2013-02-14 00:32:00,22.3,8.2,30.22,SSW,210,3.0,6.0,54,0.00,,,0.00,meteohub,2013-02-14 07:32:00,
2013-02-14 00:37:00,21.9,7.9,30.22,SW,231,5.0,5.0,54,0.00,,,0.00,meteohub,2013-02-14 07:37:00,
2013-02-14 00:42:00,22.1,8.1,30.22,SSW,208,3.0,5.0,54,0.00,,,0.00,meteohub,2013-02-14 07:42:00,
2013-02-14 00:47:00,22.3,7.7,30.22,SSE,158,2.0,5.0,53,0.00,,,0.00,meteohub,2013-02-14 07:47:00,
2013-02-14 00:52:00,22.3,7.7,30.22,SW,229,4.0,5.0,53,0.00,,,0.00,meteohub,2013-02-14 07:52:00,
2013-02-14 00:57:00,22.5,7.5,30.22,SSW,208,2.0,5.0,52,0.00,,,0.00,meteohub,2013-02-14 07:57:00,
2013-02-14 01:02:00,22.5,7.5,30.21,South,174,3.0,4.0,52,0.00,,,0.00,meteohub,2013-02-14 08:02:00,
2013-02-14 01:07:00,22.5,7.5,30.22,SSW,195,3.0,5.0,52,0.00,,,0.00,meteohub,2013-02-14 08:07:00,
2013-02-14 01:12:00,22.6,7.2,30.21,WSW,256,3.0,5.0,51,0.00,,,0.00,meteohub,2013-02-14 08:12:00,
2013-02-14 01:17:00,22.6,7.2,30.21,SW,214,2.0,5.0,51,0.00,,,0.00,meteohub,2013-02-14 08:17:00,
2013-02-14 01:22:00,22.6,7.2,30.22,SW,218,3.0,5.0,51,0.00,,,0.00,meteohub,2013-02-14 08:22:00,
2013-02-14 01:27:00,22.5,7.0,30.21,SSW,212,4.0,5.0,51,0.00,,,0.00,meteohub,2013-02-14 08:27:00,
2013-02-14 01:32:00,22.5,7.0,30.21,SSW,197,2.0,5.0,51,0.00,,,0.00,meteohub,2013-02-14 08:32:00,
2013-02-14 01:37:00,22.3,7.0,30.21,South,180,3.0,5.0,51,0.00,,,0.00,meteohub,2013-02-14 08:37:00,
2013-02-14 01:42:00,22.3,7.0,30.21,SSW,207,3.0,5.0,51,0.00,,,0.00,meteohub,2013-02-14 08:42:00,
2013-02-14 01:47:00,22.3,7.3,30.21,SSE,159,3.0,5.0,52,0.00,,,0.00,meteohub,2013-02-14 08:47:00,
2013-02-14 01:52:00,22.3,7.3,30.21,South,169,1.0,4.0,52,0.00,,,0.00,meteohub,2013-02-14 08:52:00,
2013-02-14 01:57:00,22.1,7.2,30.22,SSW,201,1.0,4.0,52,0.00,,,0.00,meteohub,2013-02-14 08:57:00,
2013-02-14 02:02:00,21.9,7.0,30.21,SSW,200,1.0,4.0,52,0.00,,,0.00,meteohub,2013-02-14 09:02:00,
2013-02-14 02:07:00,21.9,7.0,30.21,SSW,203,3.0,3.0,52,0.00,,,0.00,meteohub,2013-02-14 09:07:00,
2013-02-14 02:12:00,22.1,6.8,30.21,SW,231,3.0,4.0,51,0.00,,,0.00,meteohub,2013-02-14 09:12:00,
2013-02-14 02:17:00,22.5,6.6,30.21,SSE,164,4.0,4.0,50,0.00,,,0.00,meteohub,2013-02-14 09:17:00,
2013-02-14 02:22:00,22.1,6.3,30.20,West,265,3.0,4.0,50,0.00,,,0.00,meteohub,2013-02-14 09:22:00,
2013-02-14 02:27:00,21.6,7.2,30.20,SSE,165,4.0,6.0,53,0.00,,,0.00,meteohub,2013-02-14 09:27:00,
2013-02-14 02:32:00,21.7,6.4,30.20,SW,217,3.0,6.0,51,0.00,,,0.00,meteohub,2013-02-14 09:32:00,
2013-02-14 02:37:00,21.6,6.3,30.21,SW,236,3.0,6.0,51,0.00,,,0.00,meteohub,2013-02-14 09:37:00,
2013-02-14 02:42:00,21.2,6.3,30.20,South,191,2.0,5.0,52,0.00,,,0.00,meteohub,2013-02-14 09:42:00,
2013-02-14 02:47:00,21.2,6.8,30.20,South,172,4.0,5.0,53,0.00,,,0.00,meteohub,2013-02-14 09:47:00,
2013-02-14 02:52:00,21.0,6.6,30.20,SW,226,3.0,5.0,53,0.00,,,0.00,meteohub,2013-02-14 09:52:00,
2013-02-14 02:57:00,21.4,7.0,30.20,SSW,198,3.0,5.0,53,0.00,,,0.00,meteohub,2013-02-14 09:57:00,
2013-02-14 03:02:00,21.6,7.2,30.19,SSW,211,2.0,6.0,53,0.00,,,0.00,meteohub,2013-02-14 10:02:00,
2013-02-14 03:07:00,21.4,7.0,30.19,West,263,4.0,6.0,53,0.00,,,0.00,meteohub,2013-02-14 10:07:00,
2013-02-14 03:12:00,21.6,7.5,30.19,SSW,200,4.0,7.0,54,0.00,,,0.00,meteohub,2013-02-14 10:12:00,
2013-02-14 03:17:00,21.2,6.8,30.19,SSW,204,3.0,7.0,53,0.00,,,0.00,meteohub,2013-02-14 10:17:00,
2013-02-14 03:22:00,21.4,7.3,30.19,South,176,2.0,7.0,54,0.00,,,0.00,meteohub,2013-02-14 10:22:00,
2013-02-14 03:27:00,21.6,7.2,30.18,SSW,211,3.0,6.0,53,0.00,,,0.00,meteohub,2013-02-14 10:27:00,
2013-02-14 03:32:00,21.6,7.5,30.18,SE,142,1.0,6.0,54,0.00,,,0.00,meteohub,2013-02-14 10:32:00,
2013-02-14 03:37:00,21.7,7.2,30.17,SW,217,1.0,6.0,53,0.00,,,0.00,meteohub,2013-02-14 10:37:00,
2013-02-14 03:42:00,21.6,7.2,30.17,West,267,5.0,6.0,53,0.00,,,0.00,meteohub,2013-02-14 10:42:00,
2013-02-14 03:47:00,21.6,6.6,30.17,SW,214,3.0,5.0,52,0.00,,,0.00,meteohub,2013-02-14 10:47:00,
2013-02-14 03:52:00,21.4,7.0,30.17,SW,233,3.0,5.0,53,0.00,,,0.00,meteohub,2013-02-14 10:52:00,
2013-02-14 03:57:00,21.6,7.2,30.17,South,172,2.0,5.0,53,0.00,,,0.00,meteohub,2013-02-14 10:57:00,
2013-02-14 04:02:00,21.7,7.2,30.17,West,276,1.0,4.0,53,0.00,,,0.00,meteohub,2013-02-14 11:02:00,
2013-02-14 04:07:00,21.7,7.2,30.17,WSW,245,1.0,4.0,53,0.00,,,0.00,meteohub,2013-02-14 11:07:00,
2013-02-14 04:12:00,21.9,7.0,30.17,SSW,205,1.0,3.0,52,0.00,,,0.00,meteohub,2013-02-14 11:12:00,
2013-02-14 04:17:00,21.9,7.0,30.17,South,173,2.0,3.0,52,0.00,,,0.00,meteohub,2013-02-14 11:17:00,
2013-02-14 04:22:00,21.4,7.0,30.17,SW,233,2.0,4.0,53,0.00,,,0.00,meteohub,2013-02-14 11:22:00,
2013-02-14 04:27:00,21.6,7.2,30.17,SW,233,3.0,4.0,53,0.00,,,0.00,meteohub,2013-02-14 11:27:00,
2013-02-14 04:32:00,21.7,6.8,30.17,WSW,239,1.0,4.0,52,0.00,,,0.00,meteohub,2013-02-14 11:32:00,
2013-02-14 04:37:00,21.9,7.0,30.17,WSW,248,2.0,3.0,52,0.00,,,0.00,meteohub,2013-02-14 11:37:00,
2013-02-14 04:42:00,21.9,7.0,30.17,SW,236,2.0,3.0,52,0.00,,,0.00,meteohub,2013-02-14 11:42:00,
2013-02-14 04:47:00,22.3,7.0,30.18,SW,221,1.0,3.0,51,0.00,,,0.00,meteohub,2013-02-14 11:47:00,
2013-02-14 04:52:00,22.5,7.0,30.18,SW,222,1.0,2.0,51,0.00,,,0.00,meteohub,2013-02-14 11:52:00,
2013-02-14 04:57:00,22.3,7.0,30.18,SSE,155,0.0,2.0,51,0.00,,,0.00,meteohub,2013-02-14 11:57:00,
2013-02-14 05:02:00,21.9,6.6,30.18,South,173,2.0,2.0,51,0.00,,,0.00,meteohub,2013-02-14 12:02:00,
2013-02-14 05:07:00,21.4,6.4,30.18,SSE,165,2.0,3.0,52,0.00,,,0.00,meteohub,2013-02-14 12:07:00,
2013-02-14 05:12:00,20.7,6.3,30.18,South,180,3.0,3.0,53,0.00,,,0.00,meteohub,2013-02-14 12:12:00,
2013-02-14 05:17:00,20.3,6.3,30.18,South,169,3.0,3.0,54,0.00,,,0.00,meteohub,2013-02-14 12:17:00,
2013-02-14 05:22:00,20.5,6.4,30.18,WSW,253,1.0,3.0,54,0.00,,,0.00,meteohub,2013-02-14 12:22:00,
2013-02-14 05:27:00,20.8,6.8,30.18,SSW,193,2.0,3.0,54,0.00,,,0.00,meteohub,2013-02-14 12:27:00,
2013-02-14 05:32:00,21.2,7.2,30.18,SSE,153,4.0,4.0,54,0.00,,,0.00,meteohub,2013-02-14 12:32:00,
2013-02-14 05:37:00,21.2,6.3,30.19,SSW,204,1.0,4.0,52,0.00,,,0.00,meteohub,2013-02-14 12:37:00,
2013-02-14 05:42:00,20.8,5.9,30.18,SE,143,2.0,4.0,52,0.00,,,0.00,meteohub,2013-02-14 12:42:00,
2013-02-14 05:47:00,20.5,6.1,30.19,SW,222,3.0,6.0,53,0.00,,,0.00,meteohub,2013-02-14 12:47:00,
2013-02-14 05:52:00,20.7,6.3,30.19,SSE,154,5.0,6.0,53,0.00,,,0.00,meteohub,2013-02-14 12:52:00,
2013-02-14 05:57:00,20.7,6.3,30.19,SSW,200,2.0,6.0,53,0.00,,,0.00,meteohub,2013-02-14 12:57:00,
2013-02-14 06:02:00,20.5,6.1,30.19,SSE,152,2.0,6.0,53,0.00,,,0.00,meteohub,2013-02-14 13:02:00,
2013-02-14 06:07:00,19.9,5.9,30.19,SSE,153,4.0,6.0,54,0.00,,,0.00,meteohub,2013-02-14 13:07:00,
2013-02-14 06:12:00,20.1,6.6,30.19,SSW,210,1.0,5.0,55,0.00,,,0.00,meteohub,2013-02-14 13:12:00,
2013-02-14 06:17:00,20.1,6.6,30.19,SSW,197,1.0,5.0,55,0.00,,,0.00,meteohub,2013-02-14 13:17:00,
2013-02-14 06:22:00,20.1,7.0,30.19,SSW,197,2.0,5.0,56,0.00,,,0.00,meteohub,2013-02-14 13:22:00,
2013-02-14 06:27:00,20.1,7.0,30.19,SE,142,2.0,3.0,56,0.00,,,0.00,meteohub,2013-02-14 13:27:00,
2013-02-14 06:32:00,20.3,6.8,30.19,ESE,117,0.0,2.0,55,0.00,,,0.00,meteohub,2013-02-14 13:32:00,
2013-02-14 06:37:00,19.9,6.4,30.20,SE,129,1.0,2.0,55,0.00,,,0.00,meteohub,2013-02-14 13:37:00,
2013-02-14 06:42:00,19.4,5.9,30.20,SE,130,1.0,2.0,55,0.00,,,0.00,meteohub,2013-02-14 13:42:00,
2013-02-14 06:47:00,19.0,5.9,30.20,SE,127,0.0,1.0,56,0.00,,,0.00,meteohub,2013-02-14 13:47:00,
2013-02-14 06:52:00,18.9,6.1,30.21,ESE,105,1.0,1.0,57,0.00,,,0.00,meteohub,2013-02-14 13:52:00,
2013-02-14 06:57:00,18.7,5.9,30.20,ENE,76,2.0,2.0,57,0.00,,,0.00,meteohub,2013-02-14 13:57:00,
2013-02-14 07:02:00,18.1,5.9,30.21,East,84,0.0,2.0,58,0.00,,,0.00,meteohub,2013-02-14 14:02:00,
2013-02-14 07:07:00,18.0,6.1,30.21,SSE,150,1.0,2.0,59,0.00,,,0.00,meteohub,2013-02-14 14:07:00,
2013-02-14 07:12:00,18.0,6.4,30.21,SSW,208,1.0,2.0,60,0.00,,,0.00,meteohub,2013-02-14 14:12:00,
2013-02-14 07:17:00,18.1,6.6,30.21,SSE,163,2.0,2.0,60,0.00,,,0.00,meteohub,2013-02-14 14:17:00,
2013-02-14 07:22:00,19.2,7.2,30.21,SSE,166,0.0,3.0,59,0.00,,,0.00,meteohub,2013-02-14 14:22:00,
2013-02-14 07:27:00,20.1,7.3,30.21,SSE,151,1.0,3.0,57,0.00,,,0.00,meteohub,2013-02-14 14:27:00,
2013-02-14 07:32:00,20.7,7.5,30.21,SSW,201,0.0,3.0,56,0.00,,,0.00,meteohub,2013-02-14 14:32:00,
2013-02-14 07:37:00,21.4,7.7,30.21,SSW,201,0.0,2.0,55,0.00,,,0.00,meteohub,2013-02-14 14:37:00,
2013-02-14 07:42:00,22.1,8.1,30.21,SSW,201,0.0,2.0,54,0.00,,,0.00,meteohub,2013-02-14 14:42:00,
2013-02-14 07:47:00,21.6,7.2,30.22,NE,42,1.0,1.0,53,0.00,,,0.00,meteohub,2013-02-14 14:47:00,
2013-02-14 07:52:00,20.8,7.2,30.21,NE,44,0.0,2.0,55,0.00,,,0.00,meteohub,2013-02-14 14:52:00,
2013-02-14 07:57:00,21.4,7.7,30.21,ENE,78,0.0,2.0,55,0.00,,,0.00,meteohub,2013-02-14 14:57:00,
2013-02-14 08:02:00,20.8,7.2,30.21,NNE,26,0.0,2.0,55,0.00,,,0.00,meteohub,2013-02-14 15:02:00,
2013-02-14 08:07:00,20.8,7.7,30.22,North,358,0.0,1.0,56,0.00,,,0.00,meteohub,2013-02-14 15:07:00,
2013-02-14 08:12:00,21.4,8.1,30.21,NNW,328,1.0,1.0,56,0.00,,,0.00,meteohub,2013-02-14 15:12:00,
2013-02-14 08:17:00,21.7,8.1,30.21,NNE,26,3.0,3.0,55,0.00,,,0.00,meteohub,2013-02-14 15:17:00,
2013-02-14 08:22:00,21.6,8.2,30.21,NNE,25,0.0,4.0,56,0.00,,,0.00,meteohub,2013-02-14 15:22:00,
2013-02-14 08:27:00,21.7,8.8,30.21,NNE,23,0.0,4.0,57,0.00,,,0.00,meteohub,2013-02-14 15:27:00,
2013-02-14 08:32:00,22.1,8.8,30.21,NNE,30,2.0,4.0,56,0.00,,,0.00,meteohub,2013-02-14 15:32:00,
2013-02-14 08:37:00,22.3,9.3,30.21,NNE,27,0.0,3.0,57,0.00,,,0.00,meteohub,2013-02-14 15:37:00,
2013-02-14 08:42:00,22.3,9.0,30.21,NNE,18,2.0,3.0,56,0.00,,,0.00,meteohub,2013-02-14 15:42:00,
2013-02-14 08:47:00,22.3,9.3,30.21,NW,323,1.0,3.0,57,0.00,,,0.00,meteohub,2013-02-14 15:47:00,
2013-02-14 08:52:00,22.6,9.7,30.22,NNW,329,2.0,3.0,57,0.00,,,0.00,meteohub,2013-02-14 15:52:00,
2013-02-14 08:57:00,23.2,9.9,30.22,NNE,23,3.0,4.0,56,0.00,,,0.00,meteohub,2013-02-14 15:57:00,
2013-02-14 09:02:00,23.4,10.0,30.22,NNW,336,2.0,6.0,56,0.00,,,0.00,meteohub,2013-02-14 16:02:00,
2013-02-14 09:07:00,23.7,9.9,30.22,NNW,333,2.0,6.0,55,0.00,,,0.00,meteohub,2013-02-14 16:07:00,
2013-02-14 09:12:00,24.1,10.2,30.23,NNW,331,3.0,6.0,55,0.00,,,0.00,meteohub,2013-02-14 16:12:00,
2013-02-14 09:17:00,24.6,11.5,30.22,NNW,335,6.0,6.0,57,0.00,,,0.00,meteohub,2013-02-14 16:17:00,
2013-02-14 09:22:00,25.3,11.8,30.22,NW,322,5.0,7.0,56,0.00,,,0.00,meteohub,2013-02-14 16:22:00,
2013-02-14 09:27:00,25.9,12.4,30.22,NNW,346,8.0,9.0,56,0.00,,,0.00,meteohub,2013-02-14 16:27:00,
2013-02-14 09:32:00,26.1,12.0,30.22,NNE,17,6.0,12.0,55,0.00,,,0.00,meteohub,2013-02-14 16:32:00,
2013-02-14 09:37:00,26.8,12.0,30.22,NNW,336,7.0,12.0,53,0.00,,,0.00,meteohub,2013-02-14 16:37:00,
2013-02-14 09:42:00,27.0,11.7,30.22,NNW,332,7.0,12.0,52,0.00,,,0.00,meteohub,2013-02-14 16:42:00,
2013-02-14 09:47:00,27.3,11.7,30.22,NNE,24,11.0,13.0,51,0.00,,,0.00,meteohub,2013-02-14 16:47:00,
2013-02-14 09:52:00,27.5,11.3,30.22,NNW,331,9.0,15.0,50,0.00,,,0.00,meteohub,2013-02-14 16:52:00,
2013-02-14 09:57:00,27.9,11.7,30.22,NNW,336,6.0,15.0,50,0.00,,,0.00,meteohub,2013-02-14 16:57:00,
2013-02-14 10:02:00,28.0,11.3,30.22,NW,323,9.0,14.0,49,0.00,,,0.00,meteohub,2013-02-14 17:02:00,
2013-02-14 10:07:00,28.6,11.8,30.22,NNE,16,14.0,14.0,49,0.00,,,0.00,meteohub,2013-02-14 17:07:00,
2013-02-14 10:12:00,28.8,11.5,30.22,North,356,8.0,16.0,48,0.00,,,0.00,meteohub,2013-02-14 17:12:00,
2013-02-14 10:17:00,28.8,11.5,30.21,NNE,18,7.0,16.0,48,0.00,,,0.00,meteohub,2013-02-14 17:17:00,
2013-02-14 10:22:00,28.9,9.7,30.21,NE,38,6.0,16.0,44,0.00,,,0.00,meteohub,2013-02-14 17:22:00,
2013-02-14 10:27:00,29.1,9.9,30.21,NNE,21,4.0,15.0,44,0.00,,,0.00,meteohub,2013-02-14 17:27:00,
2013-02-14 10:32:00,29.5,10.8,30.21,NNE,19,10.0,13.0,45,0.00,,,0.00,meteohub,2013-02-14 17:32:00,
2013-02-14 10:37:00,29.7,9.9,30.21,NNE,25,8.0,13.0,43,0.00,,,0.00,meteohub,2013-02-14 17:37:00,
2013-02-14 10:42:00,30.4,9.5,30.21,NNE,26,5.0,13.0,41,0.00,,,0.00,meteohub,2013-02-14 17:42:00,
2013-02-14 10:47:00,30.7,9.3,30.21,NNW,337,2.0,12.0,40,0.00,,,0.00,meteohub,2013-02-14 17:47:00,
2013-02-14 10:52:00,30.9,8.8,30.21,North,8,5.0,12.0,39,0.00,,,0.00,meteohub,2013-02-14 17:52:00,
2013-02-14 10:57:00,31.5,8.8,30.21,NNW,333,7.0,16.0,38,0.00,,,0.00,meteohub,2013-02-14 17:57:00,
2013-02-14 11:02:00,31.5,8.2,30.21,North,349,5.0,16.0,37,0.00,,,0.00,meteohub,2013-02-14 18:02:00,
2013-02-14 11:07:00,31.3,7.3,30.21,NW,326,5.0,16.0,36,0.00,,,0.00,meteohub,2013-02-14 18:07:00,
2013-02-14 11:12:00,31.5,8.2,30.21,NW,318,8.0,14.0,37,0.00,,,0.00,meteohub,2013-02-14 18:12:00,
2013-02-14 11:17:00,31.8,8.4,30.20,NNW,347,2.0,14.0,37,0.00,,,0.00,meteohub,2013-02-14 18:17:00,
2013-02-14 11:22:00,32.2,8.8,30.20,NW,316,7.0,14.0,37,0.00,,,0.00,meteohub,2013-02-14 18:22:00,
2013-02-14 11:27:00,31.8,7.9,30.20,NE,38,5.0,17.0,36,0.00,,,0.00,meteohub,2013-02-14 18:27:00,
2013-02-14 11:32:00,31.8,7.3,30.20,NNE,29,2.0,17.0,35,0.00,,,0.00,meteohub,2013-02-14 18:32:00,
2013-02-14 11:38:00,32.2,7.5,30.20,NNW,335,5.0,17.0,35,0.00,,,0.00,meteohub,2013-02-14 18:38:00,
2013-02-14 11:43:00,32.4,8.4,30.20,NE,36,7.0,14.0,36,0.00,,,0.00,meteohub,2013-02-14 18:43:00,
2013-02-14 11:49:00,33.6,8.2,30.19,NNE,32,11.0,14.0,34,0.00,,,0.00,meteohub,2013-02-14 18:49:00,
2013-02-14 11:54:00,33.3,7.3,30.20,NNW,340,6.0,14.0,33,0.00,,,0.00,meteohub,2013-02-14 18:54:00,
2013-02-14 12:00:00,33.4,6.1,30.19,NW,325,9.0,16.0,31,0.00,,,0.00,meteohub,2013-02-14 19:00:00,
2013-02-14 12:05:00,33.1,6.4,30.19,NNW,336,8.0,19.0,32,0.00,,,0.00,meteohub,2013-02-14 19:05:00,
2013-02-14 12:11:00,32.5,6.6,30.19,NNW,330,4.0,19.0,33,0.00,,,0.00,meteohub,2013-02-14 19:11:00,
2013-02-14 12:16:00,32.7,6.8,30.19,North,11,11.0,16.0,33,0.00,,,0.00,meteohub,2013-02-14 19:16:00,
2013-02-14 12:22:00,32.9,5.5,30.18,North,1,14.0,15.0,31,0.00,,,0.00,meteohub,2013-02-14 19:22:00,
2013-02-14 12:27:00,32.5,5.2,30.19,NNE,27,10.0,19.0,31,0.00,,,0.00,meteohub,2013-02-14 19:27:00,
2013-02-14 12:32:00,33.3,7.3,30.19,NW,318,6.0,19.0,33,0.00,,,0.00,meteohub,2013-02-14 19:32:00,
2013-02-14 12:37:00,33.4,6.8,30.19,NW,316,6.0,19.0,32,0.00,,,0.00,meteohub,2013-02-14 19:37:00,
2013-02-14 12:42:00,33.1,5.7,30.19,NNE,19,8.0,15.0,31,0.00,,,0.00,meteohub,2013-02-14 19:42:00,
2013-02-14 12:47:00,33.3,4.5,30.18,North,351,11.0,15.0,29,0.00,,,0.00,meteohub,2013-02-14 19:47:00,
2013-02-14 12:52:00,34.0,5.0,30.18,NNW,334,8.0,18.0,29,0.00,,,0.00,meteohub,2013-02-14 19:52:00,
2013-02-14 12:57:00,33.3,4.5,30.18,North,358,17.0,18.0,29,0.00,,,0.00,meteohub,2013-02-14 19:57:00,
2013-02-14 13:02:00,33.4,6.8,30.18,NNW,342,16.0,18.0,32,0.00,,,0.00,meteohub,2013-02-14 20:02:00,
2013-02-14 13:07:00,33.1,5.7,30.18,NNW,329,15.0,18.0,31,0.00,,,0.00,meteohub,2013-02-14 20:07:00,
2013-02-14 13:12:00,32.9,5.5,30.17,WNW,301,9.0,22.0,31,0.00,,,0.00,meteohub,2013-02-14 20:12:00,
2013-02-14 13:17:00,33.3,5.9,30.18,North,355,13.0,22.0,31,0.00,,,0.00,meteohub,2013-02-14 20:17:00,
2013-02-14 13:22:00,33.6,5.5,30.18,WSW,242,7.0,22.0,30,0.00,,,0.00,meteohub,2013-02-14 20:22:00,
2013-02-14 13:27:00,34.0,5.0,30.17,NNW,333,22.0,22.0,29,0.00,,,0.00,meteohub,2013-02-14 20:27:00,
2013-02-14 13:32:00,33.6,5.5,30.17,North,4,14.0,23.0,30,0.00,,,0.00,meteohub,2013-02-14 20:32:00,
2013-02-14 13:37:00,34.0,5.7,30.17,NNW,335,16.0,23.0,30,0.00,,,0.00,meteohub,2013-02-14 20:37:00,
2013-02-14 13:42:00,34.2,7.3,30.17,NW,322,16.0,23.0,32,0.00,,,0.00,meteohub,2013-02-14 20:42:00,
2013-02-14 13:47:00,33.8,6.4,30.17,NNW,342,6.0,19.0,31,0.00,,,0.00,meteohub,2013-02-14 20:47:00,
2013-02-14 13:52:00,34.0,5.7,30.17,NNE,15,11.0,17.0,30,0.00,,,0.00,meteohub,2013-02-14 20:52:00,
2013-02-14 13:57:00,33.6,4.8,30.17,NW,312,10.0,17.0,29,0.00,,,0.00,meteohub,2013-02-14 20:57:00,
2013-02-14 14:02:00,33.8,5.7,30.17,NW,305,5.0,17.0,30,0.00,,,0.00,meteohub,2013-02-14 21:02:00,
2013-02-14 14:07:00,34.3,4.6,30.17,WNW,296,5.0,15.0,28,0.00,,,0.00,meteohub,2013-02-14 21:07:00,
2013-02-14 14:12:00,34.3,3.7,30.17,North,353,5.0,13.0,27,0.00,,,0.00,meteohub,2013-02-14 21:12:00,
2013-02-14 14:18:00,34.3,3.0,30.17,NW,312,10.0,16.0,26,0.00,,,0.00,meteohub,2013-02-14 21:18:00,
2013-02-14 14:23:00,34.3,3.0,30.17,NW,309,3.0,16.0,26,0.00,,,0.00,meteohub,2013-02-14 21:23:00,
2013-02-14 14:29:00,34.5,2.3,30.17,West,278,4.0,16.0,25,0.00,,,0.00,meteohub,2013-02-14 21:29:00,
2013-02-14 14:34:00,35.1,2.8,30.17,WNW,283,8.0,14.0,25,0.00,,,0.00,meteohub,2013-02-14 21:34:00,
2013-02-14 14:40:00,35.1,1.0,30.17,NW,316,10.0,16.0,23,0.00,,,0.00,meteohub,2013-02-14 21:40:00,
2013-02-14 14:45:00,35.1,1.9,30.17,NW,312,8.0,16.0,24,0.00,,,0.00,meteohub,2013-02-14 21:45:00,
2013-02-14 14:51:00,35.1,2.8,30.17,WSW,251,5.0,12.0,25,0.00,,,0.00,meteohub,2013-02-14 21:51:00,
2013-02-14 14:56:00,35.2,1.0,30.17,NW,312,4.0,12.0,23,0.00,,,0.00,meteohub,2013-02-14 21:56:00,
2013-02-14 15:02:00,35.4,1.2,30.17,NW,311,10.0,15.0,23,0.00,,,0.00,meteohub,2013-02-14 22:02:00,
2013-02-14 15:07:00,35.4,0.3,30.18,WNW,289,4.0,15.0,22,0.00,,,0.00,meteohub,2013-02-14 22:07:00,
2013-02-14 15:12:00,36.0,-0.2,30.18,WSW,239,8.0,15.0,21,0.00,,,0.00,meteohub,2013-02-14 22:12:00,
2013-02-14 15:17:00,36.0,-0.2,30.18,WSW,254,2.0,15.0,21,0.00,,,0.00,meteohub,2013-02-14 22:17:00,
2013-02-14 15:22:00,36.0,-0.2,30.18,NNW,333,5.0,15.0,21,0.00,,,0.00,meteohub,2013-02-14 22:22:00,
2013-02-14 15:27:00,36.1,0.0,30.18,NNW,335,2.0,15.0,21,0.00,,,0.00,meteohub,2013-02-14 22:27:00,
2013-02-14 15:32:00,36.3,1.0,30.18,WNW,290,10.0,15.0,22,0.00,,,0.00,meteohub,2013-02-14 22:32:00,
2013-02-14 15:37:00,36.0,1.8,30.19,NNW,340,10.0,17.0,23,0.00,,,0.00,meteohub,2013-02-14 22:37:00,
2013-02-14 15:42:00,35.4,-0.6,30.19,WNW,288,5.0,17.0,21,0.00,,,0.00,meteohub,2013-02-14 22:42:00,
2013-02-14 15:47:00,35.4,-0.6,30.19,WNW,284,11.0,17.0,21,0.00,,,0.00,meteohub,2013-02-14 22:47:00,
2013-02-14 15:52:00,34.9,-1.1,30.19,NNW,345,5.0,18.0,21,0.00,,,0.00,meteohub,2013-02-14 22:52:00,
2013-02-14 15:57:00,34.9,-1.1,30.19,NW,314,3.0,18.0,21,0.00,,,0.00,meteohub,2013-02-14 22:57:00,
2013-02-14 16:02:00,34.7,-2.4,30.19,NW,305,6.0,18.0,20,0.00,,,0.00,meteohub,2013-02-14 23:02:00,
2013-02-14 16:08:00,34.3,-2.6,30.20,NW,307,7.0,14.0,20,0.00,,,0.00,meteohub,2013-02-14 23:08:00,
2013-02-14 16:13:00,34.0,-2.9,30.20,WNW,289,7.0,14.0,20,0.00,,,0.00,meteohub,2013-02-14 23:13:00,
2013-02-14 16:19:00,33.6,-3.3,30.20,NW,319,9.0,13.0,20,0.00,,,0.00,meteohub,2013-02-14 23:19:00,
2013-02-14 16:24:00,33.4,-2.4,30.20,NW,314,6.0,18.0,21,0.00,,,0.00,meteohub,2013-02-14 23:24:00,
2013-02-14 16:29:00,33.4,-3.3,30.20,WNW,295,3.0,18.0,20,0.00,,,0.00,meteohub,2013-02-14 23:29:00,
2013-02-14 16:35:00,33.1,-2.6,30.20,NW,321,12.0,17.0,21,0.00,,,0.00,meteohub,2013-02-14 23:35:00,
2013-02-14 16:40:00,32.5,-3.1,30.20,West,264,3.0,15.0,21,0.00,,,0.00,meteohub,2013-02-14 23:40:00,
2013-02-14 16:46:00,32.4,-3.3,30.20,NNE,18,8.0,15.0,21,0.00,,,0.00,meteohub,2013-02-14 23:46:00,
2013-02-14 16:51:00,32.4,-3.3,30.21,NW,311,8.0,14.0,21,0.00,,,0.00,meteohub,2013-02-14 23:51:00,
2013-02-14 16:57:00,31.8,-2.7,30.21,NNW,328,6.0,14.0,22,0.00,,,0.00,meteohub,2013-02-14 23:57:00,
2013-02-14 17:02:00,31.5,-3.1,30.21,WNW,293,5.0,16.0,22,0.00,,,0.00,meteohub,2013-02-15 00:02:00,
2013-02-14 17:07:00,30.6,-2.9,30.22,NW,322,4.0,16.0,23,0.00,,,0.00,meteohub,2013-02-15 00:07:00,
2013-02-14 17:12:00,30.0,-2.4,30.22,NNW,335,4.0,16.0,24,0.00,,,0.00,meteohub,2013-02-15 00:12:00,
2013-02-14 17:17:00,29.7,-2.7,30.22,NW,321,6.0,9.0,24,0.00,,,0.00,meteohub,2013-02-15 00:17:00,
2013-02-14 17:22:00,29.3,-2.2,30.22,NW,323,6.0,9.0,25,0.00,,,0.00,meteohub,2013-02-15 00:22:00,
2013-02-14 17:27:00,28.9,-2.6,30.22,NW,324,3.0,10.0,25,0.00,,,0.00,meteohub,2013-02-15 00:27:00,
2013-02-14 17:32:00,28.8,-1.8,30.23,NW,317,4.0,10.0,26,0.00,,,0.00,meteohub,2013-02-15 00:32:00,
2013-02-14 17:37:00,28.8,-2.6,30.23,NNW,336,5.0,10.0,25,0.00,,,0.00,meteohub,2013-02-15 00:37:00,
2013-02-14 17:42:00,28.8,-2.6,30.23,NW,310,5.0,9.0,25,0.00,,,0.00,meteohub,2013-02-15 00:42:00,
2013-02-14 17:47:00,28.6,-2.7,30.23,WNW,297,2.0,12.0,25,0.00,,,0.00,meteohub,2013-02-15 00:47:00,
2013-02-14 17:52:00,28.6,-2.7,30.23,WNW,290,5.0,12.0,25,0.00,,,0.00,meteohub,2013-02-15 00:52:00,
2013-02-14 17:57:00,28.6,-2.7,30.22,NW,322,5.0,12.0,25,0.00,,,0.00,meteohub,2013-02-15 00:57:00,
2013-02-14 18:02:00,28.4,-2.9,30.23,NW,323,4.0,15.0,25,0.00,,,0.00,meteohub,2013-02-15 01:02:00,
2013-02-14 18:07:00,28.4,-2.9,30.23,NW,323,10.0,15.0,25,0.00,,,0.00,meteohub,2013-02-15 01:07:00,
2013-02-14 18:12:00,28.2,-2.2,30.23,NNW,342,13.0,15.0,26,0.00,,,0.00,meteohub,2013-02-15 01:12:00,
2013-02-14 18:17:00,28.0,-1.7,30.23,NNW,328,5.0,14.0,27,0.00,,,0.00,meteohub,2013-02-15 01:17:00,
2013-02-14 18:22:00,28.0,-2.4,30.23,NNW,338,9.0,15.0,26,0.00,,,0.00,meteohub,2013-02-15 01:22:00,
2013-02-14 18:27:00,27.7,-2.7,30.24,NNE,12,7.0,15.0,26,0.00,,,0.00,meteohub,2013-02-15 01:27:00,
2013-02-14 18:32:00,27.7,-2.0,30.24,NW,315,10.0,14.0,27,0.00,,,0.00,meteohub,2013-02-15 01:32:00,
2013-02-14 18:37:00,27.1,-1.7,30.25,NW,320,8.0,13.0,28,0.00,,,0.00,meteohub,2013-02-15 01:37:00,
2013-02-14 18:42:00,27.0,2.3,30.25,NNW,329,5.0,13.0,34,0.00,,,0.00,meteohub,2013-02-15 01:42:00,
2013-02-14 18:47:00,26.4,3.0,30.25,NNW,330,5.0,12.0,36,0.00,,,0.00,meteohub,2013-02-15 01:47:00,
2013-02-14 18:52:00,26.1,4.5,30.26,NNW,348,6.0,12.0,39,0.00,,,0.00,meteohub,2013-02-15 01:52:00,
2013-02-14 18:57:00,25.7,4.6,30.26,NW,322,6.0,11.0,40,0.00,,,0.00,meteohub,2013-02-15 01:57:00,
2013-02-14 19:02:00,25.5,3.4,30.27,NNW,329,7.0,11.0,38,0.00,,,0.00,meteohub,2013-02-15 02:02:00,
2013-02-14 19:07:00,25.5,3.4,30.27,NW,323,6.0,13.0,38,0.00,,,0.00,meteohub,2013-02-15 02:07:00,
2013-02-14 19:12:00,25.3,2.7,30.27,North,350,7.0,13.0,37,0.00,,,0.00,meteohub,2013-02-15 02:12:00,
2013-02-14 19:17:00,25.3,1.6,30.27,NNW,335,4.0,13.0,35,0.00,,,0.00,meteohub,2013-02-15 02:17:00,
2013-02-14 19:22:00,25.7,0.5,30.27,NW,322,6.0,10.0,33,0.00,,,0.00,meteohub,2013-02-15 02:22:00,
2013-02-14 19:27:00,25.5,1.6,30.27,NNW,331,5.0,11.0,35,0.00,,,0.00,meteohub,2013-02-15 02:27:00,
2013-02-14 19:32:00,25.5,2.3,30.28,NNW,348,4.0,11.0,36,0.00,,,0.00,meteohub,2013-02-15 02:32:00,
2013-02-14 19:37:00,25.5,1.0,30.28,NW,326,6.0,10.0,34,0.00,,,0.00,meteohub,2013-02-15 02:37:00,
2013-02-14 19:42:00,25.3,0.9,30.28,NW,326,4.0,10.0,34,0.00,,,0.00,meteohub,2013-02-15 02:42:00,
2013-02-14 19:47:00,25.0,1.2,30.28,WNW,297,5.0,10.0,35,0.00,,,0.00,meteohub,2013-02-15 02:47:00,
2013-02-14 19:52:00,25.0,1.2,30.28,NW,326,4.0,8.0,35,0.00,,,0.00,meteohub,2013-02-15 02:52:00,
2013-02-14 19:57:00,25.0,1.8,30.28,NNW,342,0.0,16.0,36,0.00,,,0.00,meteohub,2013-02-15 02:57:00,
2013-02-14 20:02:00,24.6,1.4,30.29,SW,233,1.0,16.0,36,0.00,,,0.00,meteohub,2013-02-15 03:02:00,
2013-02-14 20:07:00,24.4,1.2,30.29,WNW,294,3.0,16.0,36,0.00,,,0.00,meteohub,2013-02-15 03:07:00,
2013-02-14 20:12:00,24.4,1.2,30.29,South,170,3.0,5.0,36,0.00,,,0.00,meteohub,2013-02-15 03:12:00,
2013-02-14 20:17:00,23.7,1.8,30.28,SSW,198,1.0,6.0,38,0.00,,,0.00,meteohub,2013-02-15 03:17:00,
2013-02-14 20:22:00,23.0,2.3,30.28,SW,214,3.0,6.0,40,0.00,,,0.00,meteohub,2013-02-15 03:22:00,
2013-02-14 20:27:00,22.6,3.0,30.28,SW,219,6.0,6.0,42,0.00,,,0.00,meteohub,2013-02-15 03:27:00,
2013-02-14 20:32:00,22.6,3.6,30.28,SSW,212,3.0,7.0,43,0.00,,,0.00,meteohub,2013-02-15 03:32:00,
2013-02-14 20:37:00,22.8,3.2,30.28,WSW,239,3.0,7.0,42,0.00,,,0.00,meteohub,2013-02-15 03:37:00,
2013-02-14 20:42:00,22.6,3.6,30.28,South,184,6.0,7.0,43,0.00,,,0.00,meteohub,2013-02-15 03:42:00,
2013-02-14 20:47:00,22.3,3.7,30.28,WSW,242,2.0,7.0,44,0.00,,,0.00,meteohub,2013-02-15 03:47:00,
2013-02-14 20:52:00,22.5,4.3,30.29,WSW,248,2.0,6.0,45,0.00,,,0.00,meteohub,2013-02-15 03:52:00,
2013-02-14 20:57:00,22.6,4.5,30.29,SW,215,1.0,6.0,45,0.00,,,0.00,meteohub,2013-02-15 03:57:00,
2013-02-14 21:02:00,21.9,4.3,30.29,SE,141,4.0,7.0,46,0.00,,,0.00,meteohub,2013-02-15 04:02:00,
2013-02-14 21:07:00,21.6,4.8,30.30,SSW,208,4.0,10.0,48,0.00,,,0.00,meteohub,2013-02-15 04:07:00,
2013-02-14 21:12:00,21.2,7.2,30.29,SE,145,5.0,10.0,54,0.00,,,0.00,meteohub,2013-02-15 04:12:00,
2013-02-14 21:17:00,20.7,8.6,30.29,South,184,9.0,10.0,59,0.00,,,0.00,meteohub,2013-02-15 04:17:00,
2013-02-14 21:22:00,19.9,10.4,30.30,SSE,153,4.0,12.0,66,0.00,,,0.00,meteohub,2013-02-15 04:22:00,
2013-02-14 21:27:00,19.2,11.1,30.30,SW,223,5.0,12.0,70,0.00,,,0.00,meteohub,2013-02-15 04:27:00,
2013-02-14 21:32:00,18.9,10.9,30.30,SW,214,5.0,12.0,71,0.00,,,0.00,meteohub,2013-02-15 04:32:00,
2013-02-14 21:37:00,18.7,11.5,30.30,SW,229,11.0,11.0,73,0.00,,,0.00,meteohub,2013-02-15 04:37:00,
2013-02-14 21:42:00,18.3,11.7,30.30,South,191,6.0,13.0,75,0.00,,,0.00,meteohub,2013-02-15 04:42:00,
2013-02-14 21:47:00,18.1,11.8,30.30,SW,218,5.0,13.0,76,0.00,,,0.00,meteohub,2013-02-15 04:47:00,
2013-02-14 21:52:00,18.0,12.0,30.30,South,172,8.0,14.0,77,0.00,,,0.00,meteohub,2013-02-15 04:52:00,
2013-02-14 21:57:00,17.8,11.8,30.30,South,190,10.0,15.0,77,0.00,,,0.00,meteohub,2013-02-15 04:57:00,
2013-02-14 22:00:00,17.8,11.8,30.30,SSW,205,5.0,15.0,77,0.00,,,0.00,meteohub,2013-02-15 05:00:00,
2013-02-14 22:01:00,17.8,11.8,30.30,South,191,4.0,15.0,77,0.00,,,0.00,meteohub,2013-02-15 05:01:00,
2013-02-14 22:02:00,17.6,11.8,30.30,SW,214,7.0,15.0,78,0.00,,,0.00,meteohub,2013-02-15 05:02:00,
2013-02-14 22:07:00,17.4,11.7,30.30,SSE,155,1.0,15.0,78,0.00,,,0.00,meteohub,2013-02-15 05:07:00,
2013-02-14 22:12:00,17.2,11.5,30.30,NW,305,3.0,13.0,78,0.00,,,0.00,meteohub,2013-02-15 05:12:00,
2013-02-14 22:17:00,17.1,11.7,30.30,WSW,257,4.0,13.0,79,0.00,,,0.00,meteohub,2013-02-15 05:17:00,
2013-02-14 22:22:00,16.9,11.5,30.30,SSE,149,5.0,13.0,79,0.00,,,0.00,meteohub,2013-02-15 05:22:00,
2013-02-14 22:27:00,16.9,11.5,30.30,SSE,151,6.0,13.0,79,0.00,,,0.00,meteohub,2013-02-15 05:27:00,
2013-02-14 22:32:00,16.5,11.5,30.30,South,179,9.0,10.0,80,0.00,,,0.00,meteohub,2013-02-15 05:32:00,
2013-02-14 22:37:00,16.3,11.3,30.31,SSW,203,7.0,13.0,80,0.00,,,0.00,meteohub,2013-02-15 05:37:00,
2013-02-14 22:42:00,16.2,11.3,30.31,SW,233,7.0,13.0,81,0.00,,,0.00,meteohub,2013-02-15 05:42:00,
2013-02-14 22:47:00,16.2,11.3,30.31,South,188,5.0,13.0,81,0.00,,,0.00,meteohub,2013-02-15 05:47:00,
2013-02-14 22:52:00,16.0,11.5,30.32,SW,229,9.0,12.0,82,0.00,,,0.00,meteohub,2013-02-15 05:52:00,
2013-02-14 22:57:00,15.8,11.3,30.32,SSW,207,6.0,12.0,82,0.00,,,0.00,meteohub,2013-02-15 05:57:00,
2013-02-14 23:02:00,15.6,11.1,30.32,SSE,160,5.0,12.0,82,0.00,,,0.00,meteohub,2013-02-15 06:02:00,
2013-02-14 23:07:00,15.4,11.1,30.31,SSE,155,1.0,13.0,83,0.00,,,0.00,meteohub,2013-02-15 06:07:00,
2013-02-14 23:12:00,15.4,11.1,30.31,SSW,212,9.0,13.0,83,0.00,,,0.00,meteohub,2013-02-15 06:12:00,
2013-02-14 23:17:00,15.4,11.1,30.32,ESE,105,8.0,15.0,83,0.00,,,0.00,meteohub,2013-02-15 06:17:00,
2013-02-14 23:22:00,15.4,10.9,30.32,SSW,200,7.0,15.0,82,0.00,,,0.00,meteohub,2013-02-15 06:22:00,
2013-02-14 23:27:00,15.4,11.1,30.33,SSW,207,5.0,15.0,83,0.00,,,0.00,meteohub,2013-02-15 06:27:00,
2013-02-14 23:32:00,15.3,11.1,30.32,South,181,7.0,13.0,83,0.00,,,0.00,meteohub,2013-02-15 06:32:00,
2013-02-14 23:37:00,15.3,11.1,30.33,SW,219,3.0,12.0,83,0.00,,,0.00,meteohub,2013-02-15 06:37:00,
2013-02-14 23:42:00,15.1,10.9,30.32,South,187,4.0,12.0,83,0.00,,,0.00,meteohub,2013-02-15 06:42:00,
2013-02-14 23:47:00,14.7,10.6,30.32,West,259,10.0,12.0,83,0.00,,,0.00,meteohub,2013-02-15 06:47:00,
2013-02-14 23:52:00,14.7,10.6,30.33,SSW,200,4.0,11.0,83,0.00,,,0.00,meteohub,2013-02-15 06:52:00,
2013-02-14 23:57:00,14.7,10.6,30.32,SW,228,4.0,11.0,83,0.00,,,0.00,meteohub,2013-02-15 06:57:00,